createdAt,value
2023-04-01T00:00:56.306Z,25.02
2023-04-01T00:01:56.322Z,25.00
2023-04-01T00:02:56.332Z,24.94
2023-04-01T00:03:56.355Z,24.95
2023-04-01T00:04:56.318Z,24.93
2023-04-01T00:05:56.317Z,24.90
2023-04-01T00:06:56.294Z,24.93
2023-04-01T00:07:56.327Z,24.87
2023-04-01T00:08:56.318Z,24.97
2023-04-01T00:09:56.324Z,24.94
2023-04-01T00:10:56.297Z,24.90
2023-04-01T00:11:56.309Z,24.93
2023-04-01T00:12:56.304Z,24.93
2023-04-01T00:13:56.331Z,24.84
2023-04-01T00:14:56.317Z,24.89
2023-04-01T00:15:56.586Z,24.80
2023-04-01T00:16:56.347Z,24.81
2023-04-01T00:17:56.326Z,24.78
2023-04-01T00:18:56.325Z,24.81
2023-04-01T00:19:56.318Z,24.84
2023-04-01T00:20:56.331Z,24.83
2023-04-01T00:21:56.313Z,24.80
2023-04-01T00:22:56.321Z,24.77
2023-04-01T00:23:56.360Z,24.77
2023-04-01T00:24:56.345Z,24.74
2023-04-01T00:25:56.327Z,24.77
2023-04-01T00:26:56.334Z,24.84
2023-04-01T00:27:56.344Z,24.77
2023-04-01T00:28:56.339Z,24.87
2023-04-01T00:29:56.348Z,24.77
2023-04-01T00:30:56.360Z,24.84
2023-04-01T00:31:56.397Z,24.83
2023-04-01T00:32:56.410Z,24.80
2023-04-01T00:33:56.393Z,24.84
2023-04-01T00:34:56.383Z,24.75
2023-04-01T00:35:56.420Z,24.78
2023-04-01T00:36:56.393Z,24.78
2023-04-01T00:37:56.388Z,24.75
2023-04-01T00:38:56.386Z,24.71
2023-04-01T00:39:56.393Z,24.75
2023-04-01T00:40:56.380Z,24.78
2023-04-01T00:41:56.384Z,24.75
2023-04-01T00:42:56.385Z,24.74
2023-04-01T00:43:56.401Z,24.81
2023-04-01T00:44:56.400Z,24.83
2023-04-01T00:45:56.411Z,24.77
2023-04-01T00:46:56.438Z,24.78
2023-04-01T00:47:56.424Z,24.75
2023-04-01T00:48:56.462Z,24.74
2023-04-01T00:49:56.469Z,24.74
2023-04-01T00:50:56.442Z,24.78
2023-04-01T00:51:56.441Z,24.78
2023-04-01T00:52:56.449Z,24.78
2023-04-01T00:53:56.447Z,24.77
2023-04-01T00:54:56.478Z,24.72
2023-04-01T00:55:56.455Z,24.69
2023-04-01T00:56:56.502Z,24.73
2023-04-01T00:57:56.475Z,24.72
2023-04-01T00:58:56.503Z,24.78
2023-04-01T00:59:56.495Z,24.77
2023-04-01T01:00:56.570Z,24.78
2023-04-01T01:01:56.539Z,24.78
2023-04-01T01:02:56.550Z,24.78
2023-04-01T01:03:56.530Z,24.79
2023-04-01T01:04:56.531Z,24.79
2023-04-01T01:05:56.529Z,24.67
2023-04-01T01:06:56.550Z,24.69
2023-04-01T01:07:56.565Z,24.75
2023-04-01T01:08:56.552Z,24.75
2023-04-01T01:09:56.576Z,24.79
2023-04-01T01:10:56.578Z,24.77
2023-04-01T01:11:56.571Z,24.75
2023-04-01T01:12:56.592Z,24.75
2023-04-01T01:13:56.587Z,24.75
2023-04-01T01:14:56.592Z,24.77
2023-04-01T01:15:56.576Z,24.75
2023-04-01T01:16:56.695Z,24.72
2023-04-01T01:17:56.596Z,24.75
2023-04-01T01:18:56.602Z,24.75
2023-04-01T01:19:56.615Z,24.72
2023-04-01T01:20:56.619Z,24.68
2023-04-01T01:21:56.630Z,24.69
2023-04-01T01:22:56.637Z,24.77
2023-04-01T01:23:56.634Z,24.71
2023-04-01T01:24:56.626Z,24.72
2023-04-01T01:25:56.639Z,24.73
2023-04-01T01:26:56.662Z,24.72
2023-04-01T01:27:56.657Z,24.71
2023-04-01T01:28:56.663Z,24.72
2023-04-01T01:29:56.688Z,24.73
2023-04-01T01:30:56.703Z,24.71
2023-04-01T01:31:56.671Z,24.77
2023-04-01T01:32:56.689Z,24.67
2023-04-01T01:33:56.724Z,24.71
2023-04-01T01:34:56.732Z,24.71
2023-04-01T01:35:56.762Z,24.66
2023-04-01T01:36:56.698Z,24.66
2023-04-01T01:37:56.738Z,24.68
2023-04-01T01:38:56.702Z,24.68
2023-04-01T01:39:56.773Z,24.73
2023-04-01T01:40:56.736Z,24.69
2023-04-01T01:41:56.776Z,24.67
2023-04-01T01:42:56.783Z,24.66
2023-04-01T01:43:56.745Z,24.65
2023-04-01T01:44:56.770Z,24.67
2023-04-01T01:45:56.820Z,24.67
2023-04-01T01:46:56.761Z,24.67
2023-04-01T01:47:56.812Z,24.66
2023-04-01T01:48:56.776Z,24.69
2023-04-01T01:49:56.813Z,24.71
2023-04-01T01:50:56.838Z,24.72
2023-04-01T01:51:56.793Z,24.66
2023-04-01T01:52:56.872Z,24.71
2023-04-01T01:53:56.817Z,24.60
2023-04-01T01:54:56.836Z,24.69
2023-04-01T01:55:56.847Z,24.69
2023-04-01T01:56:56.851Z,24.66
2023-04-01T01:57:56.883Z,24.68
2023-04-01T01:58:56.875Z,24.65
2023-04-01T01:59:56.879Z,24.56
2023-04-01T02:00:56.900Z,24.60
2023-04-01T02:01:56.984Z,24.60
2023-04-01T02:02:56.895Z,24.65
2023-04-01T02:03:56.902Z,24.65
2023-04-01T02:04:57.035Z,24.66
2023-04-01T02:05:56.915Z,24.63
2023-04-01T02:06:56.910Z,24.67
2023-04-01T02:07:56.940Z,24.66
2023-04-01T02:08:56.943Z,24.59
2023-04-01T02:09:56.952Z,24.57
2023-04-01T02:10:56.945Z,24.63
2023-04-01T02:11:56.956Z,24.59
2023-04-01T02:12:56.979Z,24.60
2023-04-01T02:13:56.974Z,24.65
2023-04-01T02:14:56.993Z,24.57
2023-04-01T02:15:57.009Z,24.56
2023-04-01T02:16:57.021Z,24.53
2023-04-01T02:17:57.038Z,24.59
2023-04-01T02:18:57.041Z,24.57
2023-04-01T02:19:57.084Z,24.59
2023-04-01T02:20:57.061Z,24.59
2023-04-01T02:21:57.059Z,24.60
2023-04-01T02:22:57.080Z,24.59
2023-04-01T02:23:57.071Z,24.60
2023-04-01T02:24:57.097Z,24.65
2023-04-01T02:25:57.092Z,24.57
2023-04-01T02:26:57.096Z,24.57
2023-04-01T02:27:57.109Z,24.60
2023-04-01T02:28:57.101Z,24.59
2023-04-01T02:29:57.113Z,24.53
2023-04-01T02:30:57.125Z,24.56
2023-04-01T02:31:57.139Z,24.59
2023-04-01T02:32:57.230Z,24.59
2023-04-01T02:33:57.161Z,24.49
2023-04-01T02:34:57.185Z,24.51
2023-04-01T02:35:57.184Z,24.56
2023-04-01T02:36:57.194Z,24.65
2023-04-01T02:37:57.193Z,24.56
2023-04-01T02:38:57.210Z,24.56
2023-04-01T02:39:57.219Z,24.57
2023-04-01T02:40:57.256Z,24.59
2023-04-01T02:41:57.235Z,24.56
2023-04-01T02:42:57.248Z,24.51
2023-04-01T02:43:57.272Z,24.43
2023-04-01T02:44:57.273Z,24.46
2023-04-01T02:45:57.317Z,24.53
2023-04-01T02:46:57.380Z,24.60
2023-04-01T02:47:57.309Z,24.47
2023-04-01T02:48:57.320Z,24.56
2023-04-01T02:49:57.326Z,24.51
2023-04-01T02:50:57.342Z,24.49
2023-04-01T02:51:57.342Z,24.49
2023-04-01T02:52:57.363Z,24.47
2023-04-01T02:53:57.389Z,24.50
2023-04-01T02:54:57.392Z,24.46
2023-04-01T02:55:57.397Z,24.49
2023-04-01T02:56:57.518Z,24.57
2023-04-01T02:57:57.409Z,24.59
2023-04-01T02:58:57.419Z,24.56
2023-04-01T02:59:57.453Z,24.51
2023-04-01T03:00:57.476Z,24.51
2023-04-01T03:01:57.478Z,24.49
2023-04-01T03:02:57.618Z,24.46
2023-04-01T03:03:57.510Z,24.51
2023-04-01T03:04:57.545Z,24.50
2023-04-01T03:05:57.535Z,24.47
2023-04-01T03:06:57.561Z,24.55
2023-04-01T03:07:57.633Z,24.53
2023-04-01T03:08:57.571Z,24.49
2023-04-01T03:09:57.614Z,24.53
2023-04-01T03:10:59.558Z,24.47
2023-04-01T03:11:57.627Z,24.47
2023-04-01T03:12:57.622Z,24.53
2023-04-01T03:13:57.593Z,24.47
2023-04-01T03:14:57.622Z,24.44
2023-04-01T03:15:58.583Z,24.43
2023-04-01T03:16:57.665Z,24.46
2023-04-01T03:17:57.589Z,24.44
2023-04-01T03:18:57.561Z,24.44
2023-04-01T03:19:57.569Z,24.43
2023-04-01T03:20:57.568Z,24.46
2023-04-01T03:21:57.564Z,24.40
2023-04-01T03:22:57.534Z,24.40
2023-04-01T03:23:57.537Z,24.44
2023-04-01T03:24:57.531Z,24.46
2023-04-01T03:25:57.547Z,24.47
2023-04-01T03:26:57.516Z,24.49
2023-04-01T03:27:57.538Z,24.48
2023-04-01T03:28:57.491Z,24.44
2023-04-01T03:29:57.578Z,24.47
2023-04-01T03:30:57.573Z,24.44
2023-04-01T03:31:57.470Z,24.37
2023-04-01T03:32:57.523Z,24.38
2023-04-01T03:33:57.459Z,24.40
2023-04-01T03:34:57.465Z,24.43
2023-04-01T03:35:57.459Z,24.41
2023-04-01T03:36:57.458Z,24.48
2023-04-01T03:37:57.438Z,24.43
2023-04-01T03:38:57.429Z,24.41
2023-04-01T03:39:57.453Z,24.40
2023-04-01T03:40:57.428Z,24.34
2023-04-01T03:41:57.429Z,24.28
2023-04-01T03:42:57.522Z,24.35
2023-04-01T03:43:57.451Z,24.35
2023-04-01T03:44:57.451Z,24.43
2023-04-01T03:45:57.467Z,24.44
2023-04-01T03:46:57.497Z,24.40
2023-04-01T03:47:57.547Z,24.41
2023-04-01T03:48:57.538Z,24.43
2023-04-01T03:49:57.586Z,24.37
2023-04-01T03:50:57.562Z,24.43
2023-04-01T03:51:57.628Z,24.35
2023-04-01T03:52:57.606Z,24.41
2023-04-01T03:53:57.590Z,24.37
2023-04-01T03:54:57.669Z,24.41
2023-04-01T03:55:57.669Z,24.48
2023-04-01T03:56:57.722Z,24.44
2023-04-01T03:57:57.671Z,24.37
2023-04-01T03:58:57.661Z,24.43
2023-04-01T03:59:57.722Z,24.40
2023-04-01T04:00:57.693Z,24.32
2023-04-01T04:01:57.732Z,24.40
2023-04-01T04:02:57.763Z,24.37
2023-04-01T04:03:57.819Z,24.28
2023-04-01T04:04:57.767Z,24.38
2023-04-01T04:05:57.785Z,24.41
2023-04-01T04:06:57.779Z,24.40
2023-04-01T04:07:57.812Z,24.35
2023-04-01T04:08:57.825Z,24.41
2023-04-01T04:09:57.832Z,24.41
2023-04-01T04:10:57.879Z,24.41
2023-04-01T04:11:57.856Z,24.38
2023-04-01T04:12:57.866Z,24.33
2023-04-01T04:13:58.380Z,24.34
2023-04-01T04:14:57.902Z,24.34
2023-04-01T04:15:57.930Z,24.32
2023-04-01T04:16:57.921Z,24.40
2023-04-01T04:17:58.020Z,24.35
2023-04-01T04:18:57.937Z,24.32
2023-04-01T04:19:57.963Z,24.30
2023-04-01T04:20:57.973Z,24.34
2023-04-01T04:21:58.007Z,24.41
2023-04-01T04:22:57.996Z,24.35
2023-04-01T04:23:57.983Z,24.34
2023-04-01T04:24:58.016Z,24.32
2023-04-01T04:25:58.030Z,24.37
2023-04-01T04:26:58.030Z,24.32
2023-04-01T04:27:58.056Z,24.28
2023-04-01T04:28:58.078Z,24.34
2023-04-01T04:29:58.102Z,24.35
2023-04-01T04:30:58.084Z,24.30
2023-04-01T04:31:58.242Z,24.27
2023-04-01T04:32:58.151Z,24.30
2023-04-01T04:33:58.144Z,24.34
2023-04-01T04:34:58.151Z,24.26
2023-04-01T04:35:58.206Z,24.28
2023-04-01T04:36:58.180Z,24.30
2023-04-01T04:37:58.165Z,24.35
2023-04-01T04:38:58.194Z,24.24
2023-04-01T04:39:58.213Z,24.30
2023-04-01T04:40:58.202Z,24.28
2023-04-01T04:41:58.216Z,24.30
2023-04-01T04:42:58.241Z,24.29
2023-04-01T04:43:58.268Z,24.34
2023-04-01T04:44:58.282Z,24.37
2023-04-01T04:45:58.292Z,24.28
2023-04-01T04:46:58.573Z,24.31
2023-04-01T04:47:58.357Z,24.30
2023-04-01T04:48:58.338Z,24.32
2023-04-01T04:49:58.341Z,24.34
2023-04-01T04:50:58.328Z,24.31
2023-04-01T04:51:58.359Z,24.32
2023-04-01T04:52:58.365Z,24.35
2023-04-01T04:53:58.391Z,24.34
2023-04-01T04:54:58.409Z,24.30
2023-04-01T04:55:58.416Z,24.31
2023-04-01T04:56:58.482Z,24.32
2023-04-01T04:57:58.489Z,24.37
2023-04-01T04:58:58.472Z,24.32
2023-04-01T04:59:58.498Z,24.29
2023-04-01T05:00:58.555Z,24.28
2023-04-01T05:01:58.514Z,24.31
2023-04-01T05:02:58.632Z,24.35
2023-04-01T05:03:58.543Z,24.28
2023-04-01T05:04:58.551Z,24.35
2023-04-01T05:05:58.567Z,24.31
2023-04-01T05:06:58.567Z,24.30
2023-04-01T05:07:58.604Z,24.35
2023-04-01T05:08:58.574Z,24.35
2023-04-01T05:09:58.597Z,24.31
2023-04-01T05:10:58.613Z,24.32
2023-04-01T05:11:58.645Z,24.26
2023-04-01T05:12:58.627Z,24.35
2023-04-01T05:13:58.641Z,24.34
2023-04-01T05:14:58.650Z,24.27
2023-04-01T05:15:58.690Z,24.26
2023-04-01T05:16:58.689Z,24.28
2023-04-01T05:17:58.741Z,24.26
2023-04-01T05:18:58.722Z,24.25
2023-04-01T05:19:58.725Z,24.30
2023-04-01T05:20:58.744Z,24.29
2023-04-01T05:21:58.745Z,24.27
2023-04-01T05:22:58.779Z,24.30
2023-04-01T05:23:58.786Z,24.25
2023-04-01T05:24:58.786Z,24.30
2023-04-01T05:25:58.821Z,24.25
2023-04-01T05:26:58.820Z,24.21
2023-04-01T05:27:58.857Z,24.28
2023-04-01T05:28:58.873Z,24.22
2023-04-01T05:29:58.862Z,24.18
2023-04-01T05:30:58.938Z,24.18
2023-04-01T05:31:58.915Z,24.11
2023-04-01T05:32:58.991Z,24.17
2023-04-01T05:33:58.905Z,24.15
2023-04-01T05:34:58.936Z,24.18
2023-04-01T05:35:58.984Z,24.24
2023-04-01T05:36:58.953Z,24.21
2023-04-01T05:37:58.964Z,24.17
2023-04-01T05:38:58.960Z,24.17
2023-04-01T05:39:58.961Z,24.17
2023-04-01T05:40:58.974Z,24.17
2023-04-01T05:41:58.987Z,24.21
2023-04-01T05:42:59.000Z,24.09
2023-04-01T05:43:58.992Z,24.13
2023-04-01T05:44:59.008Z,24.17
2023-04-01T05:45:59.044Z,24.21
2023-04-01T05:46:59.011Z,24.13
2023-04-01T05:47:59.095Z,24.17
2023-04-01T05:48:59.054Z,24.17
2023-04-01T05:49:59.033Z,24.13
2023-04-01T05:50:59.045Z,24.07
2023-04-01T05:51:59.065Z,24.08
2023-04-01T05:52:59.091Z,24.09
2023-04-01T05:53:59.076Z,24.08
2023-04-01T05:54:59.094Z,24.14
2023-04-01T05:55:59.100Z,24.09
2023-04-01T05:56:59.143Z,24.09
2023-04-01T05:57:59.108Z,24.11
2023-04-01T05:58:59.114Z,24.13
2023-04-01T05:59:59.165Z,24.09
2023-04-01T06:01:08.522Z,24.11
2023-04-01T06:02:00.269Z,24.11
2023-04-01T06:02:59.172Z,24.11
2023-04-01T06:03:59.291Z,24.12
2023-04-01T06:04:59.086Z,24.10
2023-04-01T06:05:59.088Z,24.13
2023-04-01T06:06:59.082Z,24.05
2023-04-01T06:07:59.094Z,24.05
2023-04-01T06:08:59.066Z,24.05
2023-04-01T06:09:59.064Z,24.09
2023-04-01T06:10:59.071Z,24.07
2023-04-01T06:11:59.034Z,24.08
2023-04-01T06:12:59.030Z,24.08
2023-04-01T06:13:59.041Z,24.05
2023-04-01T06:14:59.034Z,24.08
2023-04-01T06:15:59.044Z,24.04
2023-04-01T06:16:59.015Z,24.06
2023-04-01T06:17:59.134Z,24.04
2023-04-01T06:18:59.002Z,24.05
2023-04-01T06:19:58.993Z,23.94
2023-04-01T06:20:58.971Z,24.01
2023-04-01T06:21:58.993Z,23.98
2023-04-01T06:22:58.980Z,24.01
2023-04-01T06:23:58.974Z,24.03
2023-04-01T06:24:58.952Z,23.95
2023-04-01T06:25:58.947Z,23.91
2023-04-01T06:26:58.947Z,23.96
2023-04-01T06:27:58.937Z,23.97
2023-04-01T06:28:58.949Z,23.97
2023-04-01T06:29:58.913Z,23.97
2023-04-01T06:30:58.908Z,23.92
2023-04-01T06:31:58.948Z,23.89
2023-04-01T06:32:58.936Z,23.82
2023-04-01T06:33:58.904Z,23.79
2023-04-01T06:34:58.876Z,23.73
2023-04-01T06:35:58.954Z,23.68
2023-04-01T06:36:58.915Z,23.75
2023-04-01T06:37:58.970Z,23.68
2023-04-01T06:38:59.030Z,23.65
2023-04-01T06:39:59.060Z,23.71
2023-04-01T06:40:59.142Z,23.68
2023-04-01T06:41:59.188Z,23.71
2023-04-01T06:42:59.239Z,23.66
2023-04-01T06:43:59.284Z,23.66
2023-04-01T06:44:59.357Z,23.64
2023-04-01T06:45:59.463Z,23.64
2023-04-01T06:46:59.448Z,23.63
2023-04-01T06:47:59.567Z,23.63
2023-04-01T06:48:59.576Z,23.62
2023-04-01T06:49:59.646Z,23.59
2023-04-01T06:50:59.690Z,23.60
2023-04-01T06:51:59.753Z,23.60
2023-04-01T06:52:59.797Z,23.60
2023-04-01T06:53:59.868Z,23.53
2023-04-01T06:54:59.956Z,23.52
2023-04-01T06:55:59.956Z,23.49
2023-04-01T06:57:00.073Z,23.49
2023-04-01T06:58:00.069Z,23.49
2023-04-01T06:59:00.121Z,23.47
2023-04-01T07:00:00.154Z,23.52
2023-04-01T07:01:00.260Z,23.48
2023-04-01T07:02:00.281Z,23.46
2023-04-01T07:03:00.315Z,23.42
2023-04-01T07:04:00.467Z,23.43
2023-04-01T07:05:00.429Z,23.41
2023-04-01T07:06:00.445Z,23.38
2023-04-01T07:07:00.496Z,23.31
2023-04-01T07:08:00.543Z,23.31
2023-04-01T07:09:01.248Z,23.29
2023-04-01T07:10:00.675Z,23.32
2023-04-01T07:11:00.698Z,23.28
2023-04-01T07:12:00.728Z,23.36
2023-04-01T07:13:00.767Z,23.32
2023-04-01T07:14:00.837Z,23.24
2023-04-01T07:15:00.880Z,23.27
2023-04-01T07:16:00.897Z,23.25
2023-04-01T07:17:00.981Z,23.25
2023-04-01T07:18:01.012Z,23.33
2023-04-01T07:19:01.365Z,23.27
2023-04-01T07:20:01.372Z,23.30
2023-04-01T07:21:01.081Z,23.27
2023-04-01T07:22:01.093Z,23.30
2023-04-01T07:23:01.151Z,23.28
2023-04-01T07:24:01.171Z,23.36
2023-04-01T07:25:01.200Z,23.38
2023-04-01T07:26:01.256Z,23.37
2023-04-01T07:27:01.273Z,23.36
2023-04-01T07:28:01.309Z,23.39
2023-04-01T07:29:01.350Z,23.39
2023-04-01T07:30:01.410Z,23.41
2023-04-01T07:31:01.412Z,23.42
2023-04-01T07:32:01.456Z,23.43
2023-04-01T07:33:01.518Z,23.39
2023-04-01T07:34:01.543Z,23.37
2023-04-01T07:35:01.633Z,23.43
2023-04-01T07:36:01.679Z,23.45
2023-04-01T07:37:01.656Z,23.45
2023-04-01T07:38:01.697Z,23.36
2023-04-01T07:39:01.804Z,23.45
2023-04-01T07:40:01.802Z,23.39
2023-04-01T07:41:01.830Z,23.43
2023-04-01T07:42:01.854Z,23.46
2023-04-01T07:43:01.910Z,23.43
2023-04-01T07:44:01.989Z,23.48
2023-04-01T07:45:01.988Z,23.51
2023-04-01T07:46:02.045Z,23.46
2023-04-01T07:47:02.080Z,23.48
2023-04-01T07:48:02.179Z,23.52
2023-04-01T07:49:02.170Z,23.46
2023-04-01T07:50:02.201Z,23.48
2023-04-01T07:51:02.233Z,23.45
2023-04-01T07:52:02.302Z,23.47
2023-04-01T07:53:02.315Z,23.39
2023-04-01T07:54:02.404Z,23.41
2023-04-01T07:55:02.399Z,23.43
2023-04-01T07:56:02.442Z,23.38
2023-04-01T07:57:02.480Z,23.32
2023-04-01T07:58:02.495Z,23.37
2023-04-01T07:59:02.532Z,23.32
2023-04-01T08:00:02.530Z,23.29
2023-04-01T08:01:02.566Z,23.25
2023-04-01T08:02:02.580Z,23.40
2023-04-01T08:03:02.726Z,23.31
2023-04-01T08:04:02.809Z,23.31
2023-04-01T08:05:02.750Z,23.37
2023-04-01T08:06:02.681Z,23.36
2023-04-01T08:07:02.703Z,23.39
2023-04-01T08:08:02.725Z,23.42
2023-04-01T08:09:02.721Z,23.40
2023-04-01T08:10:02.756Z,23.45
2023-04-01T08:11:02.766Z,23.42
2023-04-01T08:12:02.793Z,23.49
2023-04-01T08:13:02.814Z,23.52
2023-04-01T08:14:02.840Z,23.56
2023-04-01T08:15:02.865Z,23.56
2023-04-01T08:16:02.915Z,23.59
2023-04-01T08:17:02.890Z,23.61
2023-04-01T08:18:02.987Z,23.55
2023-04-01T08:19:02.954Z,23.58
2023-04-01T08:20:02.983Z,23.64
2023-04-01T08:21:03.009Z,23.59
2023-04-01T08:22:03.023Z,23.58
2023-04-01T08:23:03.050Z,23.62
2023-04-01T08:24:03.085Z,23.65
2023-04-01T08:25:03.105Z,23.64
2023-04-01T08:26:03.155Z,23.71
2023-04-01T08:27:03.144Z,23.64
2023-04-01T08:28:03.201Z,23.64
2023-04-01T08:29:03.219Z,23.66
2023-04-01T08:30:03.229Z,23.65
2023-04-01T08:31:03.254Z,23.65
2023-04-01T08:32:03.335Z,23.65
2023-04-01T08:33:03.368Z,23.68
2023-04-01T08:34:03.306Z,23.64
2023-04-01T08:35:03.337Z,23.62
2023-04-01T08:36:03.395Z,23.64
2023-04-01T08:37:03.400Z,23.65
2023-04-01T08:38:03.442Z,23.65
2023-04-01T08:39:03.455Z,23.68
2023-04-01T08:40:03.458Z,23.68
2023-04-01T08:41:03.459Z,23.66
2023-04-01T08:42:03.493Z,23.65
2023-04-01T08:43:03.529Z,23.64
2023-04-01T08:44:03.525Z,23.69
2023-04-01T08:45:03.550Z,23.68
2023-04-01T08:46:03.625Z,23.64
2023-04-01T08:47:03.595Z,23.66
2023-04-01T08:48:03.693Z,23.66
2023-04-01T08:49:03.666Z,23.72
2023-04-01T08:50:03.680Z,23.66
2023-04-01T08:51:05.358Z,23.70
2023-04-01T08:52:03.692Z,23.66
2023-04-01T08:53:03.668Z,23.65
2023-04-01T08:54:03.660Z,23.62
2023-04-01T08:55:03.656Z,23.67
2023-04-01T08:56:03.669Z,23.67
2023-04-01T08:57:03.676Z,23.59
2023-04-01T08:58:03.632Z,23.70
2023-04-01T08:59:03.639Z,23.65
2023-04-01T09:00:03.629Z,23.65
2023-04-01T09:01:03.611Z,23.65
2023-04-01T09:02:03.649Z,23.59
2023-04-01T09:03:03.847Z,23.61
2023-04-01T09:04:03.742Z,23.68
2023-04-01T09:05:03.602Z,23.64
2023-04-01T09:06:03.592Z,23.65
2023-04-01T09:07:03.564Z,23.64
2023-04-01T09:08:03.585Z,23.64
2023-04-01T09:09:03.558Z,23.64
2023-04-01T09:10:03.574Z,23.64
2023-04-01T09:11:03.566Z,23.67
2023-04-01T09:12:03.577Z,23.64
2023-04-01T09:13:03.532Z,23.61
2023-04-01T09:14:03.527Z,23.67
2023-04-01T09:15:03.547Z,23.73
2023-04-01T09:16:03.591Z,23.68
2023-04-01T09:17:03.517Z,23.65
2023-04-01T09:18:03.581Z,23.64
2023-04-01T09:19:03.486Z,23.65
2023-04-01T09:20:03.490Z,23.68
2023-04-01T09:21:03.509Z,23.65
2023-04-01T09:22:03.481Z,23.58
2023-04-01T09:23:03.522Z,23.61
2023-04-01T09:24:03.465Z,23.61
2023-04-01T09:25:03.459Z,23.59
2023-04-01T09:26:03.447Z,23.56
2023-04-01T09:27:03.461Z,23.59
2023-04-01T09:28:03.435Z,23.61
2023-04-01T09:29:03.404Z,23.52
2023-04-01T09:30:03.423Z,23.55
2023-04-01T09:31:03.426Z,23.52
2023-04-01T09:32:03.402Z,23.54
2023-04-01T09:33:03.385Z,23.52
2023-04-01T09:34:03.384Z,23.49
2023-04-01T09:35:03.362Z,23.46
2023-04-01T09:36:03.391Z,23.49
2023-04-01T09:37:03.341Z,23.45
2023-04-01T09:38:03.352Z,23.45
2023-04-01T09:39:03.343Z,23.43
2023-04-01T09:40:03.351Z,23.46
2023-04-01T09:41:03.307Z,23.44
2023-04-01T09:42:03.315Z,23.45
2023-04-01T09:43:03.298Z,23.45
2023-04-01T09:44:03.292Z,23.41
2023-04-01T09:45:03.315Z,23.41
2023-04-01T09:46:03.300Z,23.39
2023-04-01T09:47:03.275Z,23.39
2023-04-01T09:48:03.307Z,23.44
2023-04-01T09:49:03.265Z,23.42
2023-04-01T09:50:03.247Z,23.41
2023-04-01T09:51:03.250Z,23.41
2023-04-01T09:52:03.234Z,23.36
2023-04-01T09:53:03.243Z,23.36
2023-04-01T09:54:03.253Z,23.36
2023-04-01T09:55:03.226Z,23.36
2023-04-01T09:56:03.213Z,23.37
2023-04-01T09:57:03.248Z,23.33
2023-04-01T09:58:03.208Z,23.30
2023-04-01T09:59:03.187Z,23.25
2023-04-01T10:00:03.167Z,23.28
2023-04-01T10:01:03.189Z,23.21
2023-04-01T10:02:03.344Z,23.27
2023-04-01T10:03:03.198Z,23.19
2023-04-01T10:04:03.147Z,23.19
2023-04-01T10:05:03.130Z,23.15
2023-04-01T10:06:03.168Z,23.16
2023-04-01T10:07:03.123Z,23.27
2023-04-01T10:08:03.112Z,23.13
2023-04-01T10:09:03.116Z,23.10
2023-04-01T10:10:03.105Z,23.10
2023-04-01T10:11:03.103Z,23.13
2023-04-01T10:12:03.096Z,23.07
2023-04-01T10:13:03.075Z,23.10
2023-04-01T10:14:03.073Z,23.04
2023-04-01T10:15:03.076Z,23.04
2023-04-01T10:16:03.070Z,23.19
2023-04-01T10:17:03.045Z,23.08
2023-04-01T10:18:03.154Z,23.11
2023-04-01T10:19:03.037Z,23.08
2023-04-01T10:20:03.020Z,23.11
2023-04-01T10:21:03.037Z,23.15
2023-04-01T10:22:03.007Z,23.05
2023-04-01T10:23:03.010Z,23.11
2023-04-01T10:24:02.990Z,23.10
2023-04-01T10:25:05.574Z,23.00
2023-04-01T10:26:02.972Z,22.97
2023-04-01T10:27:02.973Z,23.02
2023-04-01T10:28:02.953Z,23.07
2023-04-01T10:29:02.953Z,23.10
2023-04-01T10:30:02.973Z,23.10
2023-04-01T10:31:02.970Z,22.93
2023-04-01T10:32:03.003Z,22.93
2023-04-01T10:33:02.941Z,22.93
2023-04-01T10:34:02.926Z,23.00
2023-04-01T10:35:02.925Z,22.88
2023-04-01T10:36:03.006Z,22.98
2023-04-01T10:37:02.907Z,22.99
2023-04-01T10:38:02.899Z,22.91
2023-04-01T10:39:02.889Z,22.83
2023-04-01T10:40:02.881Z,22.88
2023-04-01T10:41:02.882Z,22.91
2023-04-01T10:42:02.853Z,23.04
2023-04-01T10:43:02.851Z,22.96
2023-04-01T10:44:02.851Z,22.94
2023-04-01T10:45:02.845Z,23.02
2023-04-01T10:46:02.858Z,22.91
2023-04-01T10:47:02.813Z,22.88
2023-04-01T10:48:02.951Z,22.80
2023-04-01T10:49:02.846Z,22.76
2023-04-01T10:50:02.828Z,22.81
2023-04-01T10:51:02.821Z,22.87
2023-04-01T10:52:02.793Z,22.79
2023-04-01T10:53:03.607Z,22.88
2023-04-01T10:54:02.777Z,22.88
2023-04-01T10:55:02.775Z,22.79
2023-04-01T10:56:02.760Z,22.85
2023-04-01T10:57:02.793Z,22.77
2023-04-01T10:58:02.769Z,22.85
2023-04-01T10:59:02.766Z,22.77
2023-04-01T11:00:02.754Z,22.76
2023-04-01T11:01:02.764Z,22.74
2023-04-01T11:02:11.501Z,22.74
2023-04-01T11:03:03.760Z,22.68
2023-04-01T11:04:02.708Z,22.68
2023-04-01T11:05:02.741Z,22.70
2023-04-01T11:06:02.680Z,22.70
2023-04-01T11:07:02.695Z,22.71
2023-04-01T11:08:06.456Z,22.74
2023-04-01T11:09:02.690Z,22.68
2023-04-01T11:10:02.675Z,22.73
2023-04-01T11:11:02.688Z,22.76
2023-04-01T11:12:02.652Z,22.68
2023-04-01T11:13:02.630Z,22.73
2023-04-01T11:14:02.627Z,22.66
2023-04-01T11:15:02.637Z,22.81
2023-04-01T11:16:02.667Z,22.84
2023-04-01T11:17:02.633Z,22.81
2023-04-01T11:18:02.638Z,22.81
2023-04-01T11:19:02.599Z,22.76
2023-04-01T11:20:02.596Z,22.79
2023-04-01T11:21:02.572Z,22.79
2023-04-01T11:22:02.573Z,22.72
2023-04-01T11:23:02.570Z,22.71
2023-04-01T11:24:05.565Z,22.87
2023-04-01T11:25:02.541Z,22.87
2023-04-01T11:26:02.550Z,22.79
2023-04-01T11:27:02.533Z,22.79
2023-04-01T11:28:02.524Z,22.77
2023-04-01T11:29:02.556Z,22.77
2023-04-01T11:30:02.552Z,22.71
2023-04-01T11:31:02.571Z,22.65
2023-04-01T11:32:02.492Z,22.66
2023-04-01T11:33:02.603Z,22.71
2023-04-01T11:34:02.477Z,22.66
2023-04-01T11:35:02.484Z,22.73
2023-04-01T11:36:02.473Z,22.79
2023-04-01T11:37:02.481Z,22.63
2023-04-01T11:38:02.464Z,22.70
2023-04-01T11:39:02.462Z,22.63
2023-04-01T11:40:02.441Z,22.54
2023-04-01T11:41:02.440Z,22.56
2023-04-01T11:42:02.439Z,22.54
2023-04-01T11:43:02.422Z,22.48
2023-04-01T11:44:02.408Z,22.56
2023-04-01T11:45:02.426Z,22.46
2023-04-01T11:46:02.454Z,22.59
2023-04-01T11:47:02.392Z,22.53
2023-04-01T11:48:02.470Z,22.54
2023-04-01T11:49:02.390Z,22.60
2023-04-01T11:50:02.367Z,22.59
2023-04-01T11:51:02.385Z,22.41
2023-04-01T11:52:02.375Z,22.51
2023-04-01T11:53:02.344Z,22.52
2023-04-01T11:54:02.340Z,22.46
2023-04-01T11:55:02.333Z,22.49
2023-04-01T11:56:02.330Z,22.51
2023-04-01T11:57:02.321Z,22.52
2023-04-01T11:58:02.341Z,22.45
2023-04-01T11:59:02.342Z,22.26
2023-04-01T12:00:02.301Z,22.18
2023-04-01T12:01:02.305Z,22.41
2023-04-01T12:02:02.299Z,22.47
2023-04-01T12:03:02.338Z,22.36
2023-04-01T12:04:02.547Z,22.44
2023-04-01T12:05:02.371Z,22.36
2023-04-01T12:06:02.270Z,22.19
2023-04-01T12:07:02.250Z,22.16
2023-04-01T12:08:02.263Z,22.40
2023-04-01T12:09:02.258Z,22.54
2023-04-01T12:10:02.247Z,22.44
2023-04-01T12:11:02.225Z,22.44
2023-04-01T12:12:02.229Z,22.38
2023-04-01T12:13:02.352Z,22.46
2023-04-01T12:14:02.218Z,22.52
2023-04-01T12:15:02.227Z,22.46
2023-04-01T12:16:02.271Z,22.48
2023-04-01T12:17:02.189Z,22.58
2023-04-01T12:18:02.257Z,22.54
2023-04-01T12:19:02.164Z,22.48
2023-04-01T12:20:02.170Z,22.37
2023-04-01T12:21:02.154Z,22.35
2023-04-01T12:22:02.158Z,22.34
2023-04-01T12:23:02.160Z,22.48
2023-04-01T12:24:02.132Z,22.49
2023-04-01T12:25:02.121Z,22.44
2023-04-01T12:26:02.119Z,22.46
2023-04-01T12:27:02.119Z,22.46
2023-04-01T12:28:02.095Z,22.49
2023-04-01T12:29:02.113Z,22.44
2023-04-01T12:30:02.133Z,22.51
2023-04-01T12:31:02.099Z,22.52
2023-04-01T12:32:02.096Z,22.49
2023-04-01T12:33:02.193Z,22.55
2023-04-01T12:34:02.080Z,22.52
2023-04-01T12:35:02.062Z,22.41
2023-04-01T12:36:02.158Z,22.49
2023-04-01T12:37:02.035Z,22.49
2023-04-01T12:38:02.046Z,22.47
2023-04-01T12:39:02.066Z,22.49
2023-04-01T12:40:02.039Z,22.50
2023-04-01T12:41:02.016Z,22.41
2023-04-01T12:42:02.024Z,22.35
2023-04-01T12:43:01.991Z,22.11
2023-04-01T12:44:02.009Z,22.00
2023-04-01T12:45:01.978Z,22.38
2023-04-01T12:46:02.020Z,22.35
2023-04-01T12:47:01.984Z,22.35
2023-04-01T12:48:01.980Z,22.31
2023-04-01T12:49:01.949Z,22.28
2023-04-01T12:50:01.966Z,22.30
2023-04-01T12:51:01.956Z,22.39
2023-04-01T12:52:01.961Z,22.30
2023-04-01T12:53:01.920Z,22.38